Aérodrome :
LOGIN :

S'inscrire | Disclaimer

   EN    FR    IT 

 










Légende :    VFR   VFR Marginal   IFR   IFR Intensif   IFR Très Intensif
Visi : 
Plafond : 
>= 8 km
>= 3000ft
5 à 8 km
1000 à 3000 ft
1500m à 5 km
500 à 1000 ft
800 à 1500m
200 à 500 ft
< 800m
< 200 ft
Symboles :   Orages  Brouillard  Fortes neiges  Fortes précipitations  Vent > 20 kt
SIGMETs :   Divers  Orages  Givrage  Turbulence  Onde Orograph.  Cendres Volcan.







- Altitude de l'aérodrome : 659 ft
- Code IATA : LGG


EBLG - Liège

DERNIER METAR :
  • 182050Z 06013KT CAVOK 01/M06 Q1023 NOSIG

METARs EXPIRÉS :
  • 182020Z 06011KT CAVOK 01/M05 Q1023 NOSIG
  • 181950Z 06012KT CAVOK 02/M05 Q1023 NOSIG
  • 181920Z 06011KT CAVOK 02/M05 Q1023 NOSIG
  • 181850Z 06010KT CAVOK 02/M06 Q1023 NOSIG
  • 181820Z 06011KT CAVOK 03/M05 Q1023 NOSIG

TAF TAF EBLG
Valide du 18 à 18h jusqu'au 20 à 00h UTC


181720Z 1818/1924 05012KT CAVOK
TEMPO 1902/1909 3800 DZ BR BKN006
PROB30
TEMPO 1902/1906 2800 FZDZ BR BKN003
PROB30
TEMPO 1910/1924 06015G28KT
PROB30
TEMPO 1910/1919 4500 SHRA BKN013
Pas de NOTAMs connus pour ce terrain.



MET'MAP, la Météo Aéronautique d'un coup d'oeil ! - Copyright ORBIFLY Décembre 2007 - Disclaimer

ORBIFLY MET'MAP TEAM :

Programmation & Développement : Alexandra Zaïnal
Conception & Développement : Baudouin d'Aumeries
Co-Programmation & Développement : Marc-Olivier Méhu
Soutien technique & logistique : Manuel Goepfert

Contact : metmap@orbifly.com




SOURCES & CREDITS :

   NOAA